Time;durP1;ratioP1;P1;durP2;ratioP2;P2;SDS_P1;SDS_P2;PMS_P1;PMS_P2;Temp;Humidity;BMP_temperature;BMP_pressure;BME280_temperature;BME280_humidity;BME280_pressure;Samples;Min_cycle;Max_cycle;Signal;HPM_P1;HPM_P2
2022/07/28 00:00:55;;;;;;;4.63;2.50;;;;;;;;;;4993884;28;20448;-76
2022/07/28 00:03:24;;;;;;;4.80;2.90;;;;;;;;;;4994623;28;20779;-76
2022/07/28 00:05:51;;;;;;;2.43;2.23;;;;;;;;;;4992174;28;20502;-76
2022/07/28 00:08:18;;;;;;;4.50;2.80;;;;;;;;;;4991368;28;20488;-76
2022/07/28 00:10:45;;;;;;;5.10;2.50;;;;;;;;;;5006552;28;20450;-78
2022/07/28 00:13:12;;;;;;;3.10;1.80;;;;;;;;;;5010614;28;20467;-75
2022/07/28 00:15:39;;;;;;;4.20;2.43;;;;;;;;;;5010359;28;20459;-76
2022/07/28 00:18:06;;;;;;;4.10;2.33;;;;;;;;;;5015437;28;20919;-75
2022/07/28 00:20:34;;;;;;;3.33;2.03;;;;;;;;;;5011028;28;20459;-75
2022/07/28 00:23:01;;;;;;;2.53;2.30;;;;;;;;;;5011131;28;20447;-77
2022/07/28 00:25:28;;;;;;;2.40;2.20;;;;;;;;;;5011860;28;20443;-78
2022/07/28 00:27:55;;;;;;;2.27;1.90;;;;;;;;;;5010571;28;20486;-76
2022/07/28 00:30:22;;;;;;;3.23;2.57;;;;;;;;;;5010414;28;20826;-76
2022/07/28 00:32:49;;;;;;;2.30;2.13;;;;;;;;;;5010292;28;20451;-76
2022/07/28 00:35:16;;;;;;;2.47;2.23;;;;;;;;;;5010664;28;20526;-76
2022/07/28 00:37:45;;;;;;;2.77;1.93;;;;;;;;;;5011060;28;21001;-77
2022/07/28 00:40:12;;;;;;;2.33;2.17;;;;;;;;;;5014372;28;20505;-75
2022/07/28 00:42:39;;;;;;;3.40;2.13;;;;;;;;;;5015489;28;20451;-76
2022/07/28 00:45:07;;;;;;;2.90;2.33;;;;;;;;;;5013597;28;21053;-76
2022/07/28 00:47:34;;;;;;;3.23;2.50;;;;;;;;;;5015493;28;20565;-77
2022/07/28 00:50:01;;;;;;;5.47;2.67;;;;;;;;;;5017425;28;20459;-76
2022/07/28 00:52:28;;;;;;;2.40;2.20;;;;;;;;;;5017437;28;20451;-76
2022/07/28 00:54:57;;;;;;;3.67;2.13;;;;;;;;;;5016571;28;20475;-76
2022/07/28 00:57:24;;;;;;;3.47;2.50;;;;;;;;;;5013929;28;20431;-76
2022/07/28 00:59:51;;;;;;;4.53;2.50;;;;;;;;;;5014009;28;20505;-76
2022/07/28 01:02:18;;;;;;;2.13;2.03;;;;;;;;;;5013390;28;20451;-76
2022/07/28 01:04:45;;;;;;;3.53;2.40;;;;;;;;;;5013348;28;20467;-76
2022/07/28 01:07:19;;;;;;;2.63;2.30;;;;;;;;;;5013343;28;20552;-76
2022/07/28 01:09:53;;;;;;;2.53;2.33;;;;;;;;;;5016337;28;20482;-76
2022/07/28 01:12:33;;;;;;;2.40;2.00;;;;;;;;;;5013410;28;20447;-76
2022/07/28 01:15:03;;;;;;;2.30;2.10;;;;;;;;;;5012780;28;20994;-77
2022/07/28 01:17:36;;;;;;;7.13;2.70;;;;;;;;;;5013423;28;20455;-75
2022/07/28 01:20:07;;;;;;;3.50;2.43;;;;;;;;;;5012899;28;20531;-76
2022/07/28 01:22:35;;;;;;;4.63;3.07;;;;;;;;;;5015634;28;20444;-76
2022/07/28 01:25:07;;;;;;;2.83;2.63;;;;;;;;;;5013284;28;20892;-77
2022/07/28 01:27:42;;;;;;;3.67;2.53;;;;;;;;;;5013325;28;20478;-77
2022/07/28 01:30:11;;;;;;;3.73;2.53;;;;;;;;;;5013170;28;20505;-76
2022/07/28 01:32:42;;;;;;;3.90;2.50;;;;;;;;;;5012483;28;20447;-76
2022/07/28 01:35:12;;;;;;;3.60;2.60;;;;;;;;;;5012235;28;20842;-77
2022/07/28 01:37:42;;;;;;;2.60;2.40;;;;;;;;;;5012779;28;20447;-76
2022/07/28 01:40:10;;;;;;;2.57;2.37;;;;;;;;;;5013105;28;20501;-75
2022/07/28 01:42:39;;;;;;;3.87;2.87;;;;;;;;;;5012513;28;20501;-76
2022/07/28 01:45:07;;;;;;;3.63;2.33;;;;;;;;;;5012410;28;20956;-76
2022/07/28 01:47:35;;;;;;;2.30;2.20;;;;;;;;;;5012989;28;20481;-75
2022/07/28 01:50:05;;;;;;;8.17;2.60;;;;;;;;;;5013515;28;20455;-77
2022/07/28 01:52:32;;;;;;;2.70;2.50;;;;;;;;;;5013094;28;20447;-76
2022/07/28 01:55:00;;;;;;;3.70;2.57;;;;;;;;;;5012908;28;20521;-75
2022/07/28 01:57:28;;;;;;;2.50;2.30;;;;;;;;;;5013384;28;20435;-76
2022/07/28 01:59:55;;;;;;;2.77;2.57;;;;;;;;;;5011982;28;21009;-77
2022/07/28 02:02:23;;;;;;;2.70;2.50;;;;;;;;;;5012158;28;20447;-76
2022/07/28 02:04:51;;;;;;;3.50;2.37;;;;;;;;;;5012305;28;20537;-78
2022/07/28 02:07:21;;;;;;;3.00;2.67;;;;;;;;;;5012367;28;20614;-76
2022/07/28 02:09:48;;;;;;;2.60;2.37;;;;;;;;;;5004981;28;20445;-76
2022/07/28 02:12:17;;;;;;;3.33;3.03;;;;;;;;;;4992523;28;20448;-76
2022/07/28 02:14:47;;;;;;;3.30;2.60;;;;;;;;;;4991733;28;20483;-76
2022/07/28 02:17:16;;;;;;;2.63;2.43;;;;;;;;;;4992148;28;20951;-77
2022/07/28 02:19:45;;;;;;;3.17;2.70;;;;;;;;;;4992273;28;20448;-76
2022/07/28 02:22:13;;;;;;;5.30;2.97;;;;;;;;;;4992172;28;20456;-76
2022/07/28 02:24:41;;;;;;;3.63;2.60;;;;;;;;;;4991643;28;20511;-78
2022/07/28 02:27:12;;;;;;;5.30;2.90;;;;;;;;;;4991898;28;20607;-76
2022/07/28 02:29:41;;;;;;;2.70;2.30;;;;;;;;;;4992429;28;20823;-76
2022/07/28 02:32:12;;;;;;;2.37;2.17;;;;;;;;;;4992171;28;20441;-75
2022/07/28 02:34:40;;;;;;;3.80;2.30;;;;;;;;;;4991705;28;20555;-76
2022/07/28 02:37:08;;;;;;;3.23;2.07;;;;;;;;;;4992364;28;20511;-76
2022/07/28 02:39:37;;;;;;;4.33;2.50;;;;;;;;;;4993713;28;20536;-76
2022/07/28 02:42:07;;;;;;;7.03;2.53;;;;;;;;;;4993728;28;20448;-76
2022/07/28 02:44:37;;;;;;;3.27;2.30;;;;;;;;;;4993053;28;20472;-75
2022/07/28 02:47:07;;;;;;;2.70;2.20;;;;;;;;;;4993330;28;20456;-76
2022/07/28 02:49:35;;;;;;;2.60;2.37;;;;;;;;;;4992467;28;20881;-76
2022/07/28 02:52:03;;;;;;;2.33;2.13;;;;;;;;;;4995114;28;20866;-76
2022/07/28 02:54:31;;;;;;;5.30;2.50;;;;;;;;;;4994394;28;20464;-76
2022/07/28 02:56:59;;;;;;;2.77;2.50;;;;;;;;;;4991688;28;20440;-75
2022/07/28 02:59:28;;;;;;;3.00;2.57;;;;;;;;;;4991511;28;20463;-76
2022/07/28 03:01:55;;;;;;;3.20;2.60;;;;;;;;;;4991287;28;20583;-76
2022/07/28 03:07:04;;;;;;;2.93;2.40;;;;;;;;;;4994932;28;20442;-76
2022/07/28 03:09:31;;;;;;;4.03;2.40;;;;;;;;;;5002368;28;20431;-76
2022/07/28 03:11:58;;;;;;;3.60;2.30;;;;;;;;;;5016056;28;20478;-76
2022/07/28 03:14:25;;;;;;;3.30;2.60;;;;;;;;;;5015535;28;20534;-77
2022/07/28 03:16:53;;;;;;;4.40;2.40;;;;;;;;;;5021365;28;20474;-75
2022/07/28 03:19:20;;;;;;;2.20;2.00;;;;;;;;;;5017527;28;20475;-76
2022/07/28 03:21:48;;;;;;;3.00;2.80;;;;;;;;;;5016628;28;20501;-76
2022/07/28 03:24:16;;;;;;;4.00;2.40;;;;;;;;;;5021321;28;20975;-75
2022/07/28 03:26:48;;;;;;;2.30;2.17;;;;;;;;;;5026834;28;20431;-74
2022/07/28 03:29:16;;;;;;;2.53;2.33;;;;;;;;;;5022760;28;20538;-75
2022/07/28 03:31:46;;;;;;;3.43;2.63;;;;;;;;;;5015670;28;20526;-74
2022/07/28 03:34:14;;;;;;;5.17;2.33;;;;;;;;;;5011785;28;20478;-76
2022/07/28 03:36:43;;;;;;;3.07;2.47;;;;;;;;;;5011484;28;20455;-75
2022/07/28 03:39:11;;;;;;;3.10;2.40;;;;;;;;;;5011000;28;20455;-75
2022/07/28 03:41:38;;;;;;;5.77;2.50;;;;;;;;;;5011204;28;20970;-76
2022/07/28 03:44:06;;;;;;;6.23;2.77;;;;;;;;;;5011011;28;20595;-75
2022/07/28 03:46:33;;;;;;;3.50;2.87;;;;;;;;;;5011040;28;21221;-76
2022/07/28 03:49:00;;;;;;;3.70;2.27;;;;;;;;;;5010858;28;20479;-76
2022/07/28 03:51:28;;;;;;;2.37;2.17;;;;;;;;;;5010672;28;20451;-76
2022/07/28 03:53:55;;;;;;;3.20;2.50;;;;;;;;;;5010169;28;20482;-76
2022/07/28 03:56:22;;;;;;;3.23;2.30;;;;;;;;;;5010420;28;20451;-75
2022/07/28 03:58:49;;;;;;;2.77;2.47;;;;;;;;;;5010621;28;20502;-75
2022/07/28 04:01:17;;;;;;;4.23;2.80;;;;;;;;;;5010903;28;20443;-77
2022/07/28 04:03:44;;;;;;;4.73;2.90;;;;;;;;;;5010118;28;20826;-76
2022/07/28 04:06:11;;;;;;;6.50;2.80;;;;;;;;;;5010657;28;20451;-77
2022/07/28 04:08:40;;;;;;;3.50;2.90;;;;;;;;;;5010026;28;20479;-76
2022/07/28 04:11:07;;;;;;;2.67;2.47;;;;;;;;;;4992628;28;20448;-76
2022/07/28 04:13:35;;;;;;;4.30;2.77;;;;;;;;;;4991545;28;20507;-76
2022/07/28 04:16:02;;;;;;;2.70;2.50;;;;;;;;;;4994485;28;20868;-75
2022/07/28 04:18:29;;;;;;;2.80;2.50;;;;;;;;;;4994569;28;20451;-76
2022/07/28 04:20:56;;;;;;;3.03;2.37;;;;;;;;;;4994458;28;20460;-75
2022/07/28 04:23:23;;;;;;;3.40;2.90;;;;;;;;;;4994202;28;20519;-76
2022/07/28 04:25:52;;;;;;;2.40;2.27;;;;;;;;;;4995335;28;20995;-74
2022/07/28 04:28:19;;;;;;;3.90;2.27;;;;;;;;;;4994754;28;20488;-75
2022/07/28 04:30:46;;;;;;;4.63;2.83;;;;;;;;;;4994532;28;20448;-76
2022/07/28 04:33:13;;;;;;;3.90;2.97;;;;;;;;;;4994267;28;20471;-74
2022/07/28 04:35:40;;;;;;;5.20;2.83;;;;;;;;;;4994324;28;20450;-75
2022/07/28 04:38:07;;;;;;;3.10;2.90;;;;;;;;;;4994184;28;20440;-75
2022/07/28 04:40:34;;;;;;;4.53;3.53;;;;;;;;;;4994071;28;20475;-76
2022/07/28 04:43:02;;;;;;;2.77;2.50;;;;;;;;;;4993666;28;20823;-77
2022/07/28 04:45:30;;;;;;;3.30;3.00;;;;;;;;;;4994138;28;20523;-75
2022/07/28 04:47:57;;;;;;;4.10;2.60;;;;;;;;;;4993826;28;20487;-76
2022/07/28 04:50:24;;;;;;;3.00;2.70;;;;;;;;;;4994086;28;20448;-77
2022/07/28 04:52:51;;;;;;;3.33;2.70;;;;;;;;;;4993537;28;20448;-75
2022/07/28 04:55:18;;;;;;;3.20;2.90;;;;;;;;;;4993765;28;20459;-76
2022/07/28 04:57:45;;;;;;;2.97;2.40;;;;;;;;;;4993894;28;20444;-76
2022/07/28 05:00:14;;;;;;;5.83;3.00;;;;;;;;;;4993650;28;21001;-75
2022/07/28 05:02:43;;;;;;;3.80;2.60;;;;;;;;;;4993182;28;20510;-76
2022/07/28 05:05:10;;;;;;;2.93;2.60;;;;;;;;;;4993605;28;20468;-75
2022/07/28 05:07:37;;;;;;;3.23;2.90;;;;;;;;;;4993962;28;20460;-75
2022/07/28 05:10:05;;;;;;;2.80;2.57;;;;;;;;;;5007193;28;20868;-74
2022/07/28 05:12:32;;;;;;;3.47;3.10;;;;;;;;;;5032166;28;20423;-75
2022/07/28 05:14:59;;;;;;;4.00;3.13;;;;;;;;;;5013073;28;20994;-76
2022/07/28 05:17:28;;;;;;;2.90;2.70;;;;;;;;;;5013532;28;20451;-76
2022/07/28 05:19:55;;;;;;;3.83;3.07;;;;;;;;;;5013231;28;20499;-76
2022/07/28 05:22:22;;;;;;;3.33;2.77;;;;;;;;;;5013183;28;21017;-75
2022/07/28 05:24:49;;;;;;;2.73;2.53;;;;;;;;;;5012404;28;20456;-76
2022/07/28 05:27:16;;;;;;;4.50;3.03;;;;;;;;;;5013348;28;20478;-76
2022/07/28 05:29:43;;;;;;;7.00;3.00;;;;;;;;;;5012704;28;20486;-75
2022/07/28 05:32:10;;;;;;;3.47;2.90;;;;;;;;;;5012498;28;20451;-77
2022/07/28 05:34:39;;;;;;;4.97;2.90;;;;;;;;;;5012466;28;20957;-76
2022/07/28 05:37:06;;;;;;;4.73;3.37;;;;;;;;;;5012589;28;20451;-75
2022/07/28 05:39:33;;;;;;;4.23;3.23;;;;;;;;;;5012375;28;20705;-75
2022/07/28 05:42:00;;;;;;;3.57;2.90;;;;;;;;;;5012919;28;20864;-76
2022/07/28 05:44:27;;;;;;;3.40;3.10;;;;;;;;;;5014165;28;20513;-75
2022/07/28 05:46:54;;;;;;;6.83;3.37;;;;;;;;;;5016666;28;20537;-75
2022/07/28 05:49:22;;;;;;;3.50;3.20;;;;;;;;;;5015168;28;20639;-76
2022/07/28 05:51:50;;;;;;;7.13;3.07;;;;;;;;;;5015271;28;20538;-76
2022/07/28 05:54:17;;;;;;;9.63;3.40;;;;;;;;;;5015375;28;20465;-76
2022/07/28 05:56:46;;;;;;;3.43;2.93;;;;;;;;;;5015700;28;20876;-76
2022/07/28 05:59:13;;;;;;;5.70;3.50;;;;;;;;;;5013076;28;20471;-77
2022/07/28 06:01:40;;;;;;;3.47;2.77;;;;;;;;;;5023184;28;20553;-76
2022/07/28 06:04:07;;;;;;;6.27;4.03;;;;;;;;;;5034223;28;20463;-74
2022/07/28 06:06:34;;;;;;;7.67;3.50;;;;;;;;;;5017525;28;20496;-76
2022/07/28 06:09:03;;;;;;;4.60;3.70;;;;;;;;;;5012630;28;20482;-76
2022/07/28 06:11:30;;;;;;;6.73;4.10;;;;;;;;;;4992591;28;20448;-77
2022/07/28 06:13:57;;;;;;;5.83;3.87;;;;;;;;;;4992143;28;20499;-76
2022/07/28 06:16:24;;;;;;;4.43;3.77;;;;;;;;;;4992546;28;20452;-78
2022/07/28 06:18:51;;;;;;;3.73;3.53;;;;;;;;;;4992754;28;20448;-77
2022/07/28 06:21:18;;;;;;;4.87;3.80;;;;;;;;;;4992556;28;20452;-76
2022/07/28 06:23:45;;;;;;;6.60;4.07;;;;;;;;;;4993480;28;20468;-77
2022/07/28 06:26:14;;;;;;;7.43;4.93;;;;;;;;;;4995414;28;20506;-76
2022/07/28 06:28:41;;;;;;;4.57;4.27;;;;;;;;;;5004057;28;20480;-76
2022/07/28 06:31:08;;;;;;;5.33;4.33;;;;;;;;;;4992504;28;21026;-77
2022/07/28 06:33:36;;;;;;;7.80;4.43;;;;;;;;;;4992120;28;20959;-78
2022/07/28 06:36:03;;;;;;;4.30;4.00;;;;;;;;;;4991610;28;20452;-77
2022/07/28 06:38:30;;;;;;;5.53;4.20;;;;;;;;;;4992073;28;20476;-76
2022/07/28 06:40:57;;;;;;;5.03;4.57;;;;;;;;;;4992053;28;20449;-77
2022/07/28 06:43:26;;;;;;;4.67;4.23;;;;;;;;;;4991456;28;20988;-77
2022/07/28 06:45:53;;;;;;;5.53;5.03;;;;;;;;;;4991877;28;20449;-76
2022/07/28 06:48:20;;;;;;;5.50;5.00;;;;;;;;;;4991641;28;20451;-77
2022/07/28 06:50:47;;;;;;;5.60;5.10;;;;;;;;;;4991923;28;20440;-77
2022/07/28 06:53:14;;;;;;;7.40;5.40;;;;;;;;;;4991283;28;20472;-79
2022/07/28 06:55:41;;;;;;;4.90;4.50;;;;;;;;;;4991541;28;20437;-76
2022/07/28 06:58:08;;;;;;;5.73;4.57;;;;;;;;;;4991645;28;20436;-76
2022/07/28 07:00:36;;;;;;;5.43;5.10;;;;;;;;;;4992538;28;20459;-78
2022/07/28 07:03:04;;;;;;;5.93;5.37;;;;;;;;;;4991766;28;20587;-77
2022/07/28 07:05:31;;;;;;;5.77;5.30;;;;;;;;;;4991602;28;20893;-77
2022/07/28 07:07:58;;;;;;;5.60;5.20;;;;;;;;;;4991271;28;20447;-77
2022/07/28 07:10:25;;;;;;;5.30;4.80;;;;;;;;;;5003629;28;20505;-76
2022/07/28 07:12:52;;;;;;;5.40;4.90;;;;;;;;;;5010498;28;20873;-78
2022/07/28 07:15:19;;;;;;;6.73;5.87;;;;;;;;;;5011392;28;20447;-78
2022/07/28 07:17:47;;;;;;;5.90;5.40;;;;;;;;;;5011894;28;20994;-76
2022/07/28 07:20:14;;;;;;;7.53;5.70;;;;;;;;;;5010854;28;20529;-78
2022/07/28 07:22:45;;;;;;;5.87;5.37;;;;;;;;;;5010422;28;20445;-75
2022/07/28 07:25:12;;;;;;;6.87;5.73;;;;;;;;;;5010861;28;20550;-76
2022/07/28 07:27:40;;;;;;;6.13;5.50;;;;;;;;;;5010788;28;20993;-77
2022/07/28 07:30:07;;;;;;;7.67;6.80;;;;;;;;;;5010913;28;20540;-77
2022/07/28 07:32:34;;;;;;;8.50;5.70;;;;;;;;;;5010703;28;20545;-78
2022/07/28 07:35:03;;;;;;;6.37;5.80;;;;;;;;;;5011261;28;20525;-78
2022/07/28 07:37:31;;;;;;;6.33;5.80;;;;;;;;;;5010722;28;20489;-76
2022/07/28 07:39:58;;;;;;;6.20;5.60;;;;;;;;;;5011127;28;20451;-75
2022/07/28 07:42:25;;;;;;;6.40;5.83;;;;;;;;;;5010824;28;20824;-77
2022/07/28 07:44:53;;;;;;;6.93;6.10;;;;;;;;;;5010535;28;20459;-76
2022/07/28 07:47:20;;;;;;;6.10;5.60;;;;;;;;;;5010578;28;20494;-77
2022/07/28 07:49:47;;;;;;;6.70;6.10;;;;;;;;;;5010473;28;20535;-76
2022/07/28 07:52:15;;;;;;;6.67;6.07;;;;;;;;;;5010314;28;20448;-75
2022/07/28 07:54:42;;;;;;;7.17;6.63;;;;;;;;;;5010033;28;20514;-76
2022/07/28 07:57:09;;;;;;;6.90;6.10;;;;;;;;;;5010030;28;20439;-76
2022/07/28 07:59:36;;;;;;;6.20;5.70;;;;;;;;;;5010093;28;20561;-76
2022/07/28 08:02:04;;;;;;;7.97;7.27;;;;;;;;;;5010188;28;20458;-76
2022/07/28 08:04:31;;;;;;;7.07;6.57;;;;;;;;;;5009618;28;20882;-76
2022/07/28 08:06:58;;;;;;;7.20;6.67;;;;;;;;;;5010214;28;20458;-75
2022/07/28 08:09:26;;;;;;;7.07;6.53;;;;;;;;;;5005761;28;20531;-74
2022/07/28 08:11:53;;;;;;;7.40;6.90;;;;;;;;;;4991222;28;20963;-76
2022/07/28 08:14:20;;;;;;;6.50;5.90;;;;;;;;;;4989977;28;20483;-76
2022/07/28 08:16:47;;;;;;;7.10;6.60;;;;;;;;;;4990213;28;21209;-74
2022/07/28 08:19:14;;;;;;;7.60;7.00;;;;;;;;;;4990639;28;20444;-78
2022/07/28 08:21:41;;;;;;;7.73;7.13;;;;;;;;;;4990248;28;20955;-77
2022/07/28 08:24:08;;;;;;;7.70;7.00;;;;;;;;;;4990510;28;20472;-75
2022/07/28 08:26:37;;;;;;;7.10;6.50;;;;;;;;;;4990645;28;20467;-78
2022/07/28 08:29:04;;;;;;;6.63;6.10;;;;;;;;;;4990738;28;20892;-74
2022/07/28 08:31:31;;;;;;;7.90;7.10;;;;;;;;;;4991702;28;20448;-76
2022/07/28 08:33:58;;;;;;;7.80;7.17;;;;;;;;;;4992231;28;20522;-76
2022/07/28 08:36:25;;;;;;;8.97;6.80;;;;;;;;;;4992111;28;20511;-77
2022/07/28 08:38:52;;;;;;;9.73;7.13;;;;;;;;;;4992223;28;20467;-75
2022/07/28 08:41:21;;;;;;;8.40;7.60;;;;;;;;;;4993523;28;20506;-76
2022/07/28 08:43:50;;;;;;;7.63;7.03;;;;;;;;;;4994484;28;20499;-77
2022/07/28 08:46:18;;;;;;;9.20;7.17;;;;;;;;;;4994618;28;20519;-75
2022/07/28 08:48:45;;;;;;;7.13;6.53;;;;;;;;;;4991914;28;20444;-76
2022/07/28 08:51:12;;;;;;;7.80;7.13;;;;;;;;;;4990828;28;20968;-76
2022/07/28 08:53:40;;;;;;;7.70;7.10;;;;;;;;;;4990428;28;20464;-77
2022/07/28 08:56:08;;;;;;;7.43;6.83;;;;;;;;;;4990382;28;20459;-76
2022/07/28 08:58:36;;;;;;;7.63;6.93;;;;;;;;;;4990394;28;20440;-75
2022/07/28 09:01:06;;;;;;;6.20;5.70;;;;;;;;;;4994278;28;20470;-76
2022/07/28 09:03:33;;;;;;;7.73;7.13;;;;;;;;;;4993820;28;20467;-77
2022/07/28 09:06:00;;;;;;;7.77;7.00;;;;;;;;;;4994085;28;20456;-75
2022/07/28 09:08:27;;;;;;;7.83;7.10;;;;;;;;;;4994323;28;20826;-77
2022/07/28 09:10:54;;;;;;;7.30;6.40;;;;;;;;;;5010101;28;20490;-76
2022/07/28 09:13:21;;;;;;;7.63;7.13;;;;;;;;;;5014212;28;20469;-75
2022/07/28 09:15:48;;;;;;;7.63;7.13;;;;;;;;;;5014981;28;20521;-77
2022/07/28 09:18:17;;;;;;;7.13;6.43;;;;;;;;;;5014039;28;20447;-76
2022/07/28 09:20:45;;;;;;;7.17;6.40;;;;;;;;;;5013248;28;20452;-76
2022/07/28 09:23:12;;;;;;;7.00;6.50;;;;;;;;;;5012950;28;20471;-76
2022/07/28 09:25:39;;;;;;;8.80;6.80;;;;;;;;;;5012577;28;20919;-76
2022/07/28 09:28:08;;;;;;;6.77;6.27;;;;;;;;;;5012773;28;20720;-77
2022/07/28 09:30:37;;;;;;;6.90;6.40;;;;;;;;;;5012975;28;20575;-75
2022/07/28 09:33:18;;;;;;;6.90;6.40;;;;;;;;;;5013289;28;20451;-76
2022/07/28 09:35:46;;;;;;;6.73;6.23;;;;;;;;;;5013914;28;20509;-76
2022/07/28 09:38:13;;;;;;;6.27;5.87;;;;;;;;;;5015184;28;20451;-76
2022/07/28 09:40:41;;;;;;;7.23;6.63;;;;;;;;;;5014914;28;20501;-76
2022/07/28 09:43:09;;;;;;;7.20;6.70;;;;;;;;;;5013248;28;21001;-77
2022/07/28 09:45:36;;;;;;;6.97;6.40;;;;;;;;;;5013416;28;20542;-76
2022/07/28 09:48:10;;;;;;;6.40;5.90;;;;;;;;;;5012964;28;20450;-76
2022/07/28 09:50:39;;;;;;;6.87;6.37;;;;;;;;;;5013156;28;21011;-76
2022/07/28 09:53:22;;;;;;;6.47;6.07;;;;;;;;;;5012045;28;20559;-77
2022/07/28 09:55:55;;;;;;;7.00;6.40;;;;;;;;;;5012945;28;20451;-76
2022/07/28 09:58:23;;;;;;;6.90;6.30;;;;;;;;;;5012608;28;20447;-77
2022/07/28 10:00:50;;;;;;;6.83;6.17;;;;;;;;;;5012605;28;20440;-76
2022/07/28 10:03:26;;;;;;;7.20;6.43;;;;;;;;;;5012290;28;20811;-78
2022/07/28 10:05:57;;;;;;;7.17;5.70;;;;;;;;;;5012444;28;20451;-76
2022/07/28 10:08:39;;;;;;;6.73;6.23;;;;;;;;;;5012824;28;20474;-76
2022/07/28 10:11:06;;;;;;;6.30;5.70;;;;;;;;;;4993540;28;20488;-77
2022/07/28 10:13:33;;;;;;;6.70;6.20;;;;;;;;;;4992549;28;20979;-76
2022/07/28 10:16:12;;;;;;;6.67;6.17;;;;;;;;;;4992643;28;20503;-76
2022/07/28 10:18:40;;;;;;;6.47;5.97;;;;;;;;;;4992612;28;20452;-76
2022/07/28 10:21:10;;;;;;;6.67;5.83;;;;;;;;;;4992674;28;20444;-76
2022/07/28 10:23:38;;;;;;;6.60;6.10;;;;;;;;;;4992395;28;20590;-78
2022/07/28 10:26:07;;;;;;;8.73;5.47;;;;;;;;;;4992417;28;20539;-76
2022/07/28 10:28:36;;;;;;;6.03;5.63;;;;;;;;;;4992585;28;20535;-76
2022/07/28 10:31:04;;;;;;;6.00;5.57;;;;;;;;;;4992618;28;20476;-75
2022/07/28 10:33:32;;;;;;;5.97;5.47;;;;;;;;;;4991700;28;20837;-76
2022/07/28 10:35:59;;;;;;;5.73;5.23;;;;;;;;;;4992341;28;20896;-75
2022/07/28 10:38:33;;;;;;;6.37;5.80;;;;;;;;;;4992333;28;20483;-77
2022/07/28 10:41:02;;;;;;;5.67;5.13;;;;;;;;;;4991744;28;20490;-76
2022/07/28 10:43:30;;;;;;;5.90;5.50;;;;;;;;;;4991868;28;20599;-75
2022/07/28 10:45:58;;;;;;;5.90;5.50;;;;;;;;;;4992191;28;20451;-76
2022/07/28 10:48:25;;;;;;;6.67;6.07;;;;;;;;;;4991932;28;20448;-75
2022/07/28 10:50:53;;;;;;;5.83;5.33;;;;;;;;;;4992092;28;20487;-76
2022/07/28 10:53:34;;;;;;;7.00;5.10;;;;;;;;;;4992349;28;20480;-76
2022/07/28 10:56:04;;;;;;;5.50;5.00;;;;;;;;;;4992192;28;20694;-75
2022/07/28 10:58:37;;;;;;;5.87;5.23;;;;;;;;;;4992207;28;20670;-77
2022/07/28 11:01:04;;;;;;;5.80;5.37;;;;;;;;;;4992807;28;20499;-74
2022/07/28 11:03:39;;;;;;;5.90;5.50;;;;;;;;;;4996389;28;20976;-77
2022/07/28 11:06:25;;;;;;;5.17;4.87;;;;;;;;;;4994935;28;20447;-75
2022/07/28 11:08:52;;;;;;;5.60;5.10;;;;;;;;;;4991387;28;20503;-75
2022/07/28 11:11:34;;;;;;;5.50;5.10;;;;;;;;;;5011104;28;20534;-77
2022/07/28 11:14:16;;;;;;;5.53;5.13;;;;;;;;;;5010767;28;20852;-76
2022/07/28 11:16:44;;;;;;;6.33;5.93;;;;;;;;;;5010612;28;21005;-77
2022/07/28 11:19:14;;;;;;;5.50;5.00;;;;;;;;;;5012196;28;20474;-75
2022/07/28 11:22:01;;;;;;;5.90;5.40;;;;;;;;;;5010711;28;20440;-77
2022/07/28 11:24:53;;;;;;;5.40;5.00;;;;;;;;;;5010665;28;20467;-75
2022/07/28 11:27:45;;;;;;;5.60;5.00;;;;;;;;;;5010649;28;20838;-75
2022/07/28 11:30:13;;;;;;;5.37;4.97;;;;;;;;;;5010974;28;20566;-76
2022/07/28 11:32:55;;;;;;;5.37;4.87;;;;;;;;;;5010449;28;20826;-76
2022/07/28 11:35:23;;;;;;;5.23;4.93;;;;;;;;;;5010955;28;20450;-77
2022/07/28 11:38:06;;;;;;;8.90;5.60;;;;;;;;;;5010556;28;20521;-76
2022/07/28 11:40:34;;;;;;;17.37;6.80;;;;;;;;;;5011130;28;20435;-75
2022/07/28 11:43:16;;;;;;;5.90;5.40;;;;;;;;;;5010331;28;20451;-75
2022/07/28 11:45:43;;;;;;;6.77;5.60;;;;;;;;;;5010195;28;20454;-76
2022/07/28 11:48:14;;;;;;;7.47;5.60;;;;;;;;;;5010786;28;20447;-76
2022/07/28 11:50:43;;;;;;;5.43;4.90;;;;;;;;;;5010577;28;20598;-76
2022/07/28 11:53:10;;;;;;;5.57;5.10;;;;;;;;;;5009993;28;20813;-76
2022/07/28 11:55:37;;;;;;;5.07;4.60;;;;;;;;;;5010454;28;20493;-75
2022/07/28 11:58:05;;;;;;;6.73;5.47;;;;;;;;;;5010166;28;20513;-77
2022/07/28 12:00:33;;;;;;;8.10;5.60;;;;;;;;;;5010565;28;20482;-76
2022/07/28 12:03:04;;;;;;;5.23;4.83;;;;;;;;;;5010140;28;20439;-76
2022/07/28 12:05:32;;;;;;;4.80;4.50;;;;;;;;;;5010676;28;20447;-76
2022/07/28 12:08:00;;;;;;;5.40;5.00;;;;;;;;;;5010715;28;20501;-76
2022/07/28 12:10:32;;;;;;;5.30;4.80;;;;;;;;;;5001106;28;20476;-76
2022/07/28 12:13:00;;;;;;;5.30;4.90;;;;;;;;;;5005642;28;20456;-77
2022/07/28 12:15:27;;;;;;;5.73;5.23;;;;;;;;;;5009413;28;20454;-75
2022/07/28 12:17:54;;;;;;;5.50;5.00;;;;;;;;;;4994056;28;20491;-77
2022/07/28 12:20:21;;;;;;;4.60;4.30;;;;;;;;;;4990509;28;20440;-76
2022/07/28 12:22:55;;;;;;;5.97;5.00;;;;;;;;;;4990619;28;20448;-76
2022/07/28 12:25:24;;;;;;;4.90;4.60;;;;;;;;;;4992391;28;20905;-76
2022/07/28 12:27:51;;;;;;;4.30;3.90;;;;;;;;;;4992057;28;20440;-75
2022/07/28 12:30:24;;;;;;;4.60;4.30;;;;;;;;;;4991887;28;20487;-76
2022/07/28 12:32:52;;;;;;;5.50;5.03;;;;;;;;;;4990141;28;20467;-77
2022/07/28 12:35:19;;;;;;;5.47;4.97;;;;;;;;;;4993332;28;20618;-76
2022/07/28 12:37:47;;;;;;;5.07;4.70;;;;;;;;;;4994152;28;20866;-77
2022/07/28 12:40:15;;;;;;;4.83;4.53;;;;;;;;;;4994467;28;20486;-76
2022/07/28 12:42:44;;;;;;;5.83;4.43;;;;;;;;;;4993973;28;20436;-76
2022/07/28 12:45:11;;;;;;;6.90;4.60;;;;;;;;;;4994200;28;20452;-76
2022/07/28 12:47:38;;;;;;;4.30;4.00;;;;;;;;;;4995753;28;20448;-75
2022/07/28 12:50:11;;;;;;;4.07;3.80;;;;;;;;;;5000044;28;20444;-75
2022/07/28 12:52:38;;;;;;;4.70;4.30;;;;;;;;;;4996808;28;20546;-76
2022/07/28 12:55:20;;;;;;;4.87;4.20;;;;;;;;;;4994473;28;20797;-75
2022/07/28 12:57:50;;;;;;;4.70;4.40;;;;;;;;;;4994246;28;20455;-76
2022/07/28 13:00:18;;;;;;;4.50;4.20;;;;;;;;;;4994522;28;20483;-76
2022/07/28 13:02:45;;;;;;;5.03;4.60;;;;;;;;;;4993359;28;20517;-76
2022/07/28 13:05:26;;;;;;;4.60;4.20;;;;;;;;;;4994180;28;20464;-76
2022/07/28 13:07:58;;;;;;;4.60;4.20;;;;;;;;;;4994163;28;20447;-76
2022/07/28 13:10:26;;;;;;;4.80;4.40;;;;;;;;;;5005933;28;20520;-76
2022/07/28 13:13:01;;;;;;;4.10;3.80;;;;;;;;;;5012749;28;20949;-76
2022/07/28 13:15:28;;;;;;;4.50;4.13;;;;;;;;;;5013240;28;20466;-75
2022/07/28 13:17:56;;;;;;;6.90;4.20;;;;;;;;;;5013161;28;20450;-76
2022/07/28 13:20:24;;;;;;;4.10;3.80;;;;;;;;;;5013465;28;20549;-76
2022/07/28 13:22:51;;;;;;;4.43;4.03;;;;;;;;;;5012790;28;20836;-77
2022/07/28 13:25:18;;;;;;;7.17;4.20;;;;;;;;;;5013036;28;20451;-78
2022/07/28 13:27:45;;;;;;;6.03;4.10;;;;;;;;;;5012702;28;20452;-76
2022/07/28 13:30:13;;;;;;;6.23;4.53;;;;;;;;;;5013034;28;20443;-77
2022/07/28 13:32:40;;;;;;;4.43;4.17;;;;;;;;;;5013054;28;21036;-76
2022/07/28 13:35:08;;;;;;;5.20;4.53;;;;;;;;;;5013201;28;20475;-78
2022/07/28 13:37:35;;;;;;;4.33;4.03;;;;;;;;;;5013136;28;20861;-78
2022/07/28 13:40:02;;;;;;;4.93;4.53;;;;;;;;;;5012874;28;20528;-77
2022/07/28 13:42:29;;;;;;;4.57;4.27;;;;;;;;;;5013210;28;20462;-78
2022/07/28 13:44:56;;;;;;;4.70;4.30;;;;;;;;;;5013184;28;20509;-77
2022/07/28 13:47:26;;;;;;;5.20;4.80;;;;;;;;;;5013803;28;20439;-76
2022/07/28 13:49:53;;;;;;;4.30;4.00;;;;;;;;;;5013186;28;20517;-77
2022/07/28 13:52:20;;;;;;;4.90;4.50;;;;;;;;;;5012522;28;20486;-76
2022/07/28 13:54:47;;;;;;;4.50;4.20;;;;;;;;;;5012399;28;20474;-78
2022/07/28 13:57:14;;;;;;;4.70;4.40;;;;;;;;;;5012542;28;20443;-76
2022/07/28 13:59:42;;;;;;;4.37;3.67;;;;;;;;;;5012472;28;20868;-77
2022/07/28 14:02:09;;;;;;;4.23;3.93;;;;;;;;;;5012271;28;20448;-76
2022/07/28 14:04:38;;;;;;;4.40;4.00;;;;;;;;;;5012215;28;20463;-77
2022/07/28 14:07:05;;;;;;;4.27;3.90;;;;;;;;;;5012347;28;20448;-77
2022/07/28 14:09:32;;;;;;;4.00;3.80;;;;;;;;;;5008124;28;20441;-77
2022/07/28 14:12:02;;;;;;;4.93;4.03;;;;;;;;;;4993095;28;20575;-77
2022/07/28 14:14:29;;;;;;;5.00;4.20;;;;;;;;;;4992895;28;20591;-76
2022/07/28 14:16:56;;;;;;;5.27;3.87;;;;;;;;;;4993145;28;20444;-77
2022/07/28 14:19:25;;;;;;;4.53;4.17;;;;;;;;;;4993551;28;20449;-77
2022/07/28 14:21:54;;;;;;;5.30;4.80;;;;;;;;;;4993374;28;20448;-77
2022/07/28 14:24:21;;;;;;;3.93;3.63;;;;;;;;;;4993378;28;20559;-76
2022/07/28 14:26:48;;;;;;;4.63;4.23;;;;;;;;;;4992875;28;20510;-77
2022/07/28 14:29:16;;;;;;;4.07;3.83;;;;;;;;;;4992709;28;20463;-77
2022/07/28 14:31:43;;;;;;;4.37;4.07;;;;;;;;;;4992711;28;20483;-77
2022/07/28 14:34:10;;;;;;;4.77;4.27;;;;;;;;;;4991993;28;20468;-77
2022/07/28 14:36:37;;;;;;;5.00;4.47;;;;;;;;;;4993007;28;20448;-77
2022/07/28 14:39:06;;;;;;;5.53;4.20;;;;;;;;;;4992679;28;20440;-76
2022/07/28 14:41:33;;;;;;;4.50;4.20;;;;;;;;;;4993263;28;20435;-80
2022/07/28 14:44:00;;;;;;;4.40;4.00;;;;;;;;;;4994636;28;20514;-76
2022/07/28 14:46:27;;;;;;;4.37;3.60;;;;;;;;;;4994790;28;20460;-76
2022/07/28 14:48:54;;;;;;;6.13;4.30;;;;;;;;;;4993920;28;20839;-77
2022/07/28 14:51:21;;;;;;;4.33;4.03;;;;;;;;;;4994320;28;20487;-76
2022/07/28 14:53:48;;;;;;;4.30;3.93;;;;;;;;;;4994011;28;20475;-77